Time;durP1;ratioP1;P1;durP2;ratioP2;P2;SDS_P1;SDS_P2;PMS_P1;PMS_P2;Temp;Humidity;BMP_temperature;BMP_pressure;BME280_temperature;BME280_humidity;BME280_pressure;Samples;Min_cycle;Max_cycle;Signal;HPM_P1;HPM_P2
2021/09/20 00:02:03;;;;;;;;;1.00;1.00;;;;;23.63;46.79;101262.13;5078294;28;45366;-67
2021/09/20 00:04:29;;;;;;;;;1.00;1.00;;;;;23.59;47.16;101255.31;5078428;28;45486;-64
2021/09/20 00:06:54;;;;;;;;;1.75;1.00;;;;;23.63;47.44;101261.31;5078024;28;46025;-51
2021/09/20 00:09:19;;;;;;;;;0.25;0.25;;;;;23.61;47.16;101265.84;5078040;28;45444;-58
2021/09/20 00:11:45;;;;;;;;;1.25;1.25;;;;;23.60;47.27;101257.03;5077983;28;45315;-62
2021/09/20 00:14:10;;;;;;;;;2.75;1.00;;;;;23.58;47.37;101252.78;5078530;28;45262;-58
2021/09/20 00:16:36;;;;;;;;;3.00;1.00;;;;;23.59;47.39;101260.63;5077938;28;46439;-60
2021/09/20 00:19:01;;;;;;;;;2.00;0.25;;;;;23.60;47.20;101261.47;5077990;28;45215;-60
2021/09/20 00:21:27;;;;;;;;;0.50;0.50;;;;;23.58;47.32;101258.06;5077949;28;45763;-58
2021/09/20 00:23:52;;;;;;;;;1.50;0.50;;;;;23.58;47.15;101256.31;5077165;28;45391;-60
2021/09/20 00:26:18;;;;;;;;;1.00;1.00;;;;;23.58;47.32;101263.38;5077647;28;45893;-61
2021/09/20 00:28:43;;;;;;;;;1.00;1.00;;;;;23.54;47.35;101251.25;5077843;28;45338;-57
2021/09/20 00:31:08;;;;;;;;;1.25;1.25;;;;;23.56;47.21;101263.47;5078236;28;45302;-61
2021/09/20 00:33:34;;;;;;;;;5.25;1.00;;;;;23.56;47.34;101263.47;5077860;28;45601;-66
2021/09/20 00:35:59;;;;;;;;;0.75;0.75;;;;;23.57;47.24;101266.97;5077540;28;45388;-63
2021/09/20 00:38:24;;;;;;;;;0.75;0.75;;;;;23.55;47.28;101264.41;5077075;28;45242;-56
2021/09/20 00:40:50;;;;;;;;;1.00;0.50;;;;;23.54;47.18;101256.56;5077609;28;45677;-63
2021/09/20 00:43:16;;;;;;;;;0.00;0.00;;;;;23.53;47.28;101260.19;5077688;28;45470;-59
2021/09/20 00:45:42;;;;;;;;;1.00;1.00;;;;;23.52;47.11;101258.47;5077655;28;46717;-61
2021/09/20 00:48:07;;;;;;;;;2.00;1.00;;;;;23.53;47.03;101260.19;5077387;28;45422;-66
2021/09/20 00:50:33;;;;;;;;;2.00;2.00;;;;;23.53;47.47;101261.00;5077558;28;45343;-63
2021/09/20 00:52:59;;;;;;;;;0.00;0.00;;;;;23.53;47.22;101255.72;5077640;28;45407;-65
2021/09/20 00:55:24;;;;;;;;;0.75;0.75;;;;;23.52;46.88;101259.31;5077267;28;45450;-62
2021/09/20 00:57:50;;;;;;;;;1.75;0.00;;;;;23.51;47.26;101252.31;5077264;28;45411;-63
2021/09/20 01:00:17;;;;;;;;;1.00;0.00;;;;;23.51;47.02;101259.41;5077152;28;45237;-56
2021/09/20 01:02:42;;;;;;;;;0.00;0.00;;;;;23.51;46.90;101262.91;5077779;28;45592;-53
2021/09/20 01:05:10;;;;;;;;;1.00;0.00;;;;;23.48;47.20;101247.22;5076997;28;46028;-61
2021/09/20 01:07:35;;;;;;;;;2.00;1.00;;;;;23.51;46.99;101256.75;5077016;28;45307;-62
2021/09/20 01:10:02;;;;;;;;;1.00;1.00;;;;;23.51;46.79;101256.75;5077195;28;45308;-60
2021/09/20 01:12:28;;;;;;;;;1.00;0.00;;;;;23.50;46.94;101249.78;5077407;28;45592;-57
2021/09/20 01:14:57;;;;;;;;;0.00;0.00;;;;;23.51;47.28;101259.41;5076855;28;46087;-63
2021/09/20 01:17:23;;;;;;;;;0.50;0.00;;;;;23.51;47.46;101251.47;5077070;28;45745;-65
2021/09/20 01:19:48;;;;;;;;;1.00;1.00;;;;;23.50;47.33;101244.47;5077134;28;45230;-58
2021/09/20 01:22:16;;;;;;;;;0.75;0.75;;;;;23.50;47.10;101249.78;5077539;28;45621;-60
2021/09/20 01:24:43;;;;;;;;;0.00;0.00;;;;;23.49;46.92;101246.25;5077087;28;46592;-57
2021/09/20 01:27:09;;;;;;;;;1.25;0.00;;;;;23.49;46.84;101242.78;5076843;28;45293;-61
2021/09/20 01:29:35;;;;;;;;;1.00;1.00;;;;;23.50;47.27;101244.47;5077062;28;45317;-65
2021/09/20 01:32:04;;;;;;;;;1.25;1.25;;;;;23.47;47.02;101246.38;5077214;28;45165;-59
2021/09/20 01:34:29;;;;;;;;;0.75;0.75;;;;;23.49;47.38;101245.41;5076503;28;46124;-58
2021/09/20 01:36:55;;;;;;;;;1.00;1.00;;;;;23.49;47.32;101248.06;5058521;28;45969;-64
2021/09/20 01:39:23;;;;;;;;;1.00;1.00;;;;;23.49;47.17;101242.78;5076973;28;45383;-48
2021/09/20 01:41:50;;;;;;;;;0.25;0.25;;;;;23.47;47.19;101242.88;5092804;27;45623;-47
2021/09/20 01:44:15;;;;;;;;;0.50;0.50;;;;;23.47;47.52;101234.94;5076836;28;46442;-53
2021/09/20 01:46:43;;;;;;;;;1.00;1.00;;;;;23.47;46.87;101241.06;5075305;28;45567;-48
2021/09/20 01:49:09;;;;;;;;;0.00;0.00;;;;;23.46;47.67;101236.72;5076700;28;45448;-49
2021/09/20 01:51:35;;;;;;;;;0.00;0.00;;;;;23.45;47.35;101235.03;5079493;28;45506;-49
2021/09/20 01:54:00;;;;;;;;;1.00;0.00;;;;;23.46;47.78;101241.19;5079609;28;59258;-47
2021/09/20 01:56:25;;;;;;;;;1.00;1.00;;;;;23.45;47.53;101237.66;5080189;28;45306;-50
2021/09/20 01:58:51;;;;;;;;;1.00;1.00;;;;;23.46;47.28;101234.06;5080258;28;45329;-59
2021/09/20 02:01:16;;;;;;;;;3.00;1.00;;;;;23.45;46.90;101232.38;5080477;28;45326;-57
2021/09/20 02:03:41;;;;;;;;;0.00;0.00;;;;;23.43;47.40;101225.50;5079845;28;45420;-47
2021/09/20 02:06:07;;;;;;;;;1.00;0.25;;;;;23.43;47.27;101223.69;5079964;28;45352;-62
2021/09/20 02:08:32;;;;;;;;;1.75;0.00;;;;;23.44;47.03;101224.53;5080093;28;45299;-52
2021/09/20 02:10:57;;;;;;;;;1.00;1.00;;;;;23.43;47.43;101228.97;5079040;28;45580;-51
2021/09/20 02:13:23;;;;;;;;;1.00;1.00;;;;;23.44;47.16;101224.53;5079808;28;46072;-47
2021/09/20 02:15:48;;;;;;;;;1.00;1.00;;;;;23.44;47.23;101220.09;5079830;28;45505;-47
2021/09/20 02:18:13;;;;;;;;;1.00;1.00;;;;;23.43;47.69;101223.69;5080134;28;45383;-47
2021/09/20 02:20:39;;;;;;;;;0.50;0.50;;;;;23.42;47.28;101219.34;5080035;28;45660;-47
2021/09/20 02:23:04;;;;;;;;;1.00;1.00;;;;;23.43;47.34;101218.38;5079801;28;46120;-54
2021/09/20 02:25:29;;;;;;;;;0.00;0.00;;;;;23.43;47.44;101214.91;5079631;28;45383;-52
2021/09/20 02:27:55;;;;;;;;;1.00;1.00;;;;;23.43;47.54;101218.38;5079686;28;45360;-49
2021/09/20 02:30:20;;;;;;;;;1.00;1.00;;;;;23.43;47.55;101218.38;5079893;28;45526;-51
2021/09/20 02:32:46;;;;;;;;;1.00;1.00;;;;;23.42;47.27;101208.78;5079699;28;46168;-52
2021/09/20 02:35:12;;;;;;;;;1.00;1.00;;;;;23.43;47.50;101214.91;5079485;28;45315;-51
2021/09/20 02:37:39;;;;;;;;;0.75;0.75;;;;;23.42;47.39;101211.44;5079735;28;45348;-55
2021/09/20 02:40:07;;;;;;;;;1.00;1.00;;;;;23.42;47.35;101211.44;5061484;28;45524;-51
2021/09/20 02:42:33;;;;;;;;;2.00;0.00;;;;;23.41;47.61;101208.84;5079405;28;46808;-54
2021/09/20 02:44:59;;;;;;;;;1.25;1.25;;;;;23.42;47.42;101211.44;5079358;28;45449;-54
2021/09/20 02:47:24;;;;;;;;;1.00;1.00;;;;;23.41;47.60;101211.50;5079361;28;45327;-48
2021/09/20 02:49:49;;;;;;;;;1.00;1.00;;;;;23.40;47.62;101212.44;5061642;28;45414;-52
2021/09/20 02:52:15;;;;;;;;;3.25;1.00;;;;;23.39;47.49;101211.59;5079383;28;46498;-50
2021/09/20 02:54:40;;;;;;;;;1.00;1.00;;;;;23.41;47.42;101219.44;5079177;28;45237;-55
2021/09/20 02:57:05;;;;;;;;;1.25;0.00;;;;;23.38;47.43;101209.91;5079328;28;45232;-49
2021/09/20 02:59:31;;;;;;;;;3.00;1.25;;;;;23.40;47.54;101210.66;5079126;28;45501;-52
2021/09/20 03:01:56;;;;;;;;;1.00;1.00;;;;;23.38;47.50;101209.91;5078708;28;46230;-47
2021/09/20 03:04:21;;;;;;;;;1.00;1.00;;;;;23.40;47.43;101209.78;5079005;28;45247;-47
2021/09/20 03:06:47;;;;;;;;;0.00;0.00;;;;;23.40;47.63;101212.44;5079410;28;45383;-49
2021/09/20 03:09:12;;;;;;;;;0.50;0.50;;;;;23.37;47.30;101216.13;5079238;28;45321;-48
2021/09/20 03:11:37;;;;;;;;;0.25;0.25;;;;;23.38;47.62;101209.91;5078849;28;45349;-47
2021/09/20 03:14:03;;;;;;;;;1.00;1.00;;;;;23.37;47.12;101220.59;5078828;28;45346;-49
2021/09/20 03:16:28;;;;;;;;;1.00;1.00;;;;;23.38;47.51;101214.31;5079054;28;45332;-50
2021/09/20 03:18:53;;;;;;;;;2.00;1.00;;;;;23.38;47.60;101214.31;5079159;28;45315;-48
2021/09/20 03:21:23;;;;;;;;;1.00;1.00;;;;;23.37;47.59;101215.28;5079027;28;45338;-47
2021/09/20 03:23:48;;;;;;;;;0.00;0.00;;;;;23.37;47.83;101216.13;5079036;28;45383;-51
2021/09/20 03:26:14;;;;;;;;;3.75;1.00;;;;;23.34;47.67;101213.66;5078778;28;45304;-51
2021/09/20 03:28:39;;;;;;;;;1.75;1.25;;;;;23.37;47.53;101217.94;5079018;28;45621;-49
2021/09/20 03:31:05;;;;;;;;;1.50;1.00;;;;;23.38;47.69;101230.19;5060252;28;47460;-57
2021/09/20 03:33:30;;;;;;;;;1.00;1.00;;;;;23.36;47.65;101217.06;5078656;28;45426;-60
2021/09/20 03:35:55;;;;;;;;;1.00;1.00;;;;;23.37;47.46;101223.22;5078718;28;45303;-61
2021/09/20 03:38:20;;;;;;;;;1.00;1.00;;;;;23.35;47.46;101225.94;5079164;28;45546;-62
2021/09/20 03:40:46;;;;;;;;;1.00;1.00;;;;;23.37;47.67;101233.81;5078391;28;45276;-59
2021/09/20 03:43:11;;;;;;;;;1.00;1.00;;;;;23.35;47.38;101231.25;5078461;28;45293;-66
2021/09/20 03:45:37;;;;;;;;;1.00;1.00;;;;;23.36;47.28;101216.25;5078451;28;45274;-60
2021/09/20 03:48:02;;;;;;;;;1.25;1.00;;;;;23.35;47.51;101225.94;5078890;28;45636;-68
2021/09/20 03:50:27;;;;;;;;;2.50;1.00;;;;;23.34;47.52;101223.41;5078242;28;47392;-48
2021/09/20 03:52:53;;;;;;;;;1.00;1.00;;;;;23.36;47.28;101221.53;5078256;28;45274;-48
2021/09/20 03:55:18;;;;;;;;;1.00;1.00;;;;;23.36;47.67;101227.66;5078639;28;45268;-48
2021/09/20 03:57:43;;;;;;;;;1.00;1.00;;;;;23.34;47.74;101218.97;5078598;28;45334;-48
2021/09/20 04:00:11;;;;;;;;;0.25;0.25;;;;;23.35;47.55;101227.75;5077914;28;46559;-54
2021/09/20 04:02:36;;;;;;;;;1.00;1.00;;;;;23.34;47.72;101226.91;5078056;28;45704;-56
2021/09/20 04:05:02;;;;;;;;;0.00;0.00;;;;;23.32;47.50;101226.13;5078179;28;45324;-55
2021/09/20 04:07:27;;;;;;;;;2.00;1.00;;;;;23.35;47.85;101230.41;5078291;28;45438;-52
2021/09/20 04:09:52;;;;;;;;;1.00;1.00;;;;;23.34;47.94;101223.41;5078256;28;46100;-48
2021/09/20 04:12:18;;;;;;;;;1.00;1.00;;;;;23.34;47.80;101226.91;5078028;27;45464;-59
2021/09/20 04:14:43;;;;;;;;;1.00;1.00;;;;;23.34;48.03;101229.53;5077213;28;45413;-61
2021/09/20 04:17:08;;;;;;;;;1.00;1.00;;;;;23.34;47.78;101226.06;5078199;28;45307;-59
2021/09/20 04:19:35;;;;;;;;;2.00;2.00;;;;;23.34;47.59;101228.69;5077880;28;46188;-56
2021/09/20 04:22:02;;;;;;;;;1.00;1.00;;;;;23.34;47.87;101229.53;5078004;28;45362;-53
2021/09/20 04:24:27;;;;;;;;;2.00;0.00;;;;;23.33;47.93;101233.13;5077932;28;45236;-48
2021/09/20 04:26:52;;;;;;;;;1.00;1.00;;;;;23.33;47.60;101227.84;5078317;28;45241;-50
2021/09/20 04:29:18;;;;;;;;;0.25;0.25;;;;;23.33;48.08;101232.28;5077642;28;45326;-48
2021/09/20 04:31:43;;;;;;;;;2.00;0.50;;;;;23.32;48.14;101234.06;5077609;28;45398;-49
2021/09/20 04:34:08;;;;;;;;;1.00;1.00;;;;;23.32;47.86;101236.72;5077815;28;45461;-50
2021/09/20 04:36:34;;;;;;;;;2.00;1.00;;;;;23.33;47.88;101227.00;5077900;28;45502;-47
2021/09/20 04:39:00;;;;;;;;;2.25;1.00;;;;;23.31;47.86;101230.59;5077439;28;47313;-47
2021/09/20 04:41:25;;;;;;;;;1.00;1.00;;;;;23.32;47.71;101226.13;5077950;28;45334;-51
2021/09/20 04:43:50;;;;;;;;;2.00;2.00;;;;;23.31;48.05;101229.75;5077923;28;45806;-54
2021/09/20 04:46:16;;;;;;;;;1.00;1.00;;;;;23.32;47.56;101228.78;5077709;28;45253;-50
2021/09/20 04:48:41;;;;;;;;;0.50;0.50;;;;;23.31;48.07;101230.59;5077343;28;46582;-54
2021/09/20 04:51:06;;;;;;;;;1.50;1.50;;;;;23.33;47.83;101237.56;5077234;28;45402;-50
2021/09/20 04:53:32;;;;;;;;;1.00;1.00;;;;;23.31;47.96;101235.03;5077416;28;45388;-51
2021/09/20 04:55:57;;;;;;;;;2.00;1.00;;;;;23.30;48.01;101238.63;5077592;28;45469;-48
2021/09/20 04:58:23;;;;;;;;;1.00;1.00;;;;;23.30;48.07;101235.97;5077542;28;45576;-50
2021/09/20 05:00:48;;;;;;;;;2.00;2.00;;;;;23.31;47.66;101242.97;5076983;28;45413;-50
2021/09/20 05:03:13;;;;;;;;;1.25;1.25;;;;;23.30;47.69;101234.16;5077195;28;45352;-48
2021/09/20 05:05:39;;;;;;;;;0.50;0.50;;;;;23.30;47.71;101238.63;5077396;28;45438;-53
2021/09/20 05:08:05;;;;;;;;;0.00;0.00;;;;;23.28;47.81;101237.88;5077076;28;45571;-57
2021/09/20 05:10:31;;;;;;;;;3.00;1.00;;;;;23.30;47.86;101241.28;5077106;28;45449;-53
2021/09/20 05:12:56;;;;;;;;;1.25;1.25;;;;;23.29;47.86;101236.91;5077428;28;45233;-52
2021/09/20 05:15:22;;;;;;;;;1.00;1.00;;;;;23.29;47.67;101239.56;5076930;28;45212;-48
2021/09/20 05:17:47;;;;;;;;;0.50;0.50;;;;;23.29;47.78;101244.84;5076725;28;46718;-48
2021/09/20 05:20:14;;;;;;;;;2.00;0.25;;;;;23.28;48.16;101249.28;5076790;28;45363;-48
2021/09/20 05:22:41;;;;;;;;;1.00;1.00;;;;;23.28;48.09;101249.28;5076924;28;45205;-48
2021/09/20 05:25:07;;;;;;;;;0.25;0.25;;;;;23.29;47.86;101255.44;5077043;28;45376;-47
2021/09/20 05:27:34;;;;;;;;;1.50;1.50;;;;;23.28;47.83;101251.09;5076556;28;47038;-48
2021/09/20 05:30:01;;;;;;;;;1.50;0.00;;;;;23.28;47.89;101259.84;5076636;27;45321;-58
2021/09/20 05:32:27;;;;;;;;;1.00;1.00;;;;;23.28;48.14;101259.03;5077084;28;45233;-55
2021/09/20 05:34:52;;;;;;;;;1.00;1.00;;;;;23.27;47.70;101257.31;5076993;28;45276;-48
2021/09/20 05:37:17;;;;;;;;;1.00;1.00;;;;;23.27;47.81;101262.59;5076619;28;46288;-49
2021/09/20 05:39:43;;;;;;;;;2.00;2.00;;;;;23.26;48.06;101255.59;5076632;28;45752;-48
2021/09/20 05:42:08;;;;;;;;;1.50;1.00;;;;;23.27;47.91;101260.78;5076721;28;45336;-53
2021/09/20 05:44:34;;;;;;;;;3.00;1.75;;;;;23.28;47.83;101262.50;5076953;28;45476;-58
2021/09/20 05:46:59;;;;;;;;;3.00;1.50;;;;;23.28;47.97;101266.94;5076466;28;46559;-50
2021/09/20 05:49:24;;;;;;;;;1.75;1.75;;;;;23.27;47.86;101259.97;5076948;28;45185;-60
2021/09/20 05:51:50;;;;;;;;;2.25;2.00;;;;;23.27;48.08;101266.09;5076519;28;45631;-57
2021/09/20 05:54:15;;;;;;;;;2.50;1.25;;;;;23.26;47.79;101269.66;5076543;28;45465;-59
2021/09/20 05:56:41;;;;;;;;;2.00;1.25;;;;;23.27;48.08;101260.78;5076418;28;46488;-62
2021/09/20 05:59:07;;;;;;;;;1.00;1.00;;;;;23.28;47.91;101266.94;5076210;28;45511;-57
2021/09/20 06:01:32;;;;;;;;;1.00;1.00;;;;;23.26;47.96;101266.19;5076492;28;45331;-61
2021/09/20 06:03:57;;;;;;;;;1.25;1.25;;;;;23.25;48.10;101262.72;5076930;28;45303;-64
2021/09/20 06:06:23;;;;;;;;;3.00;2.00;;;;;23.25;48.43;101269.78;5057772;28;53245;-57
2021/09/20 06:08:48;;;;;;;;;1.50;1.00;;;;;23.26;48.20;101269.66;5076403;28;45400;-60
2021/09/20 06:11:14;;;;;;;;;2.00;2.00;;;;;23.27;48.27;101273.19;5076441;28;45292;-62
2021/09/20 06:13:40;;;;;;;;;2.25;2.25;;;;;23.27;47.96;101275.81;5076571;28;45762;-61
2021/09/20 06:16:07;;;;;;;;;2.25;2.00;;;;;23.27;47.98;101284.59;5076083;28;45512;-62
2021/09/20 06:18:33;;;;;;;;;2.75;2.75;;;;;23.26;47.93;101274.13;5076117;28;45820;-49
2021/09/20 06:20:58;;;;;;;;;4.00;2.75;;;;;23.27;48.37;101278.47;5076589;28;45266;-53
2021/09/20 06:23:24;;;;;;;;;2.25;1.00;;;;;23.25;47.92;101280.34;5076300;28;45296;-57
2021/09/20 06:25:49;;;;;;;;;2.00;2.00;;;;;23.25;48.21;101275.06;5075956;28;45545;-53
2021/09/20 06:28:15;;;;;;;;;1.00;1.00;;;;;23.26;48.42;101285.53;5075831;28;45847;-50
2021/09/20 06:30:41;;;;;;;;;2.00;2.00;;;;;23.27;48.18;101281.94;5076133;28;45339;-51
2021/09/20 06:33:06;;;;;;;;;3.25;2.25;;;;;23.27;48.90;101286.41;5076252;28;45432;-61
2021/09/20 06:35:31;;;;;;;;;4.25;3.00;;;;;23.27;48.64;101291.69;5075926;28;46600;-47
2021/09/20 06:37:58;;;;;;;;;2.00;2.00;;;;;23.28;48.22;101293.41;5079256;28;45375;-54
2021/09/20 06:40:24;;;;;;;;;2.00;2.00;;;;;23.28;48.29;101288.09;5079668;28;45393;-55
2021/09/20 06:42:49;;;;;;;;;3.00;3.00;;;;;23.27;48.36;101294.34;5079519;28;45296;-51
2021/09/20 06:45:15;;;;;;;;;3.50;3.50;;;;;23.27;48.27;101294.34;5079190;28;46614;-55
2021/09/20 06:47:40;;;;;;;;;5.00;3.00;;;;;23.26;48.38;101296.13;5079369;28;45320;-50
2021/09/20 06:50:07;;;;;;;;;3.75;2.25;;;;;23.28;48.36;101298.69;5079353;28;45780;-47
2021/09/20 06:52:32;;;;;;;;;2.00;2.00;;;;;23.29;48.25;101306.53;5061263;28;45301;-50
2021/09/20 06:54:58;;;;;;;;;4.50;4.00;;;;;23.26;48.29;101306.69;5079292;28;46486;-51
2021/09/20 06:57:23;;;;;;;;;2.00;2.00;;;;;23.27;48.40;101308.41;5079082;28;45473;-47
2021/09/20 06:59:49;;;;;;;;;4.25;4.25;;;;;23.26;48.49;101306.69;5079215;28;45379;-54
2021/09/20 07:02:14;;;;;;;;;5.25;4.00;;;;;23.28;48.76;101318.03;5079352;28;45645;-55
2021/09/20 07:04:40;;;;;;;;;3.25;3.25;;;;;23.28;48.48;101319.84;5079016;28;46445;-61
2021/09/20 07:07:05;;;;;;;;;4.00;4.00;;;;;23.29;48.89;101319.75;5079132;28;45449;-53
2021/09/20 07:09:30;;;;;;;;;5.75;4.00;;;;;23.29;48.60;101321.56;5079571;28;45487;-48
2021/09/20 07:11:56;;;;;;;;;3.50;3.50;;;;;23.29;48.76;101322.38;5079335;28;45580;-53
2021/09/20 07:14:21;;;;;;;;;4.75;4.75;;;;;23.29;49.13;101324.19;5078860;28;45529;-57
2021/09/20 07:16:46;;;;;;;;;7.00;5.25;;;;;23.28;48.55;101325.97;5077640;28;45482;-53
2021/09/20 07:19:21;;;;;;;;;5.00;5.00;;;;;23.28;49.00;101325.97;5061137;28;45434;-53
2021/09/20 07:21:46;;;;;;;;;5.00;4.00;;;;;23.28;49.21;101318.03;5094860;27;45624;-55
2021/09/20 07:24:11;;;;;;;;;5.00;3.25;;;;;23.30;49.21;101329.38;5078586;28;45395;-51
2021/09/20 07:26:37;;;;;;;;;5.25;5.00;;;;;23.31;48.79;101339.03;5078591;28;45390;-48
2021/09/20 07:29:02;;;;;;;;;4.00;3.50;;;;;23.30;48.90;101332.03;5079092;28;45386;-50
2021/09/20 07:31:28;;;;;;;;;3.25;3.25;;;;;23.30;49.14;101339.13;5078891;28;45380;-50
2021/09/20 07:33:54;;;;;;;;;4.25;4.25;;;;;23.29;49.21;101332.97;5078391;28;45627;-48
2021/09/20 07:36:19;;;;;;;;;5.00;5.00;;;;;23.31;49.26;101339.03;5078541;28;45867;-47
2021/09/20 07:38:45;;;;;;;;;4.25;4.25;;;;;23.31;48.90;101339.03;5078737;28;45339;-48
2021/09/20 07:41:10;;;;;;;;;5.50;4.50;;;;;23.31;48.88;101338.19;5078556;28;45431;-47
2021/09/20 07:43:36;;;;;;;;;4.50;4.50;;;;;23.30;48.77;101339.97;5078505;28;45418;-50
2021/09/20 07:46:02;;;;;;;;;8.00;5.00;;;;;23.31;49.37;101343.47;5078812;28;45253;-50
2021/09/20 07:48:28;;;;;;;;;4.25;4.25;;;;;23.32;49.11;101342.50;5077373;28;45232;-53
2021/09/20 07:50:54;;;;;;;;;5.50;5.50;;;;;23.30;49.51;101339.13;5077478;28;45589;-48
2021/09/20 07:53:19;;;;;;;;;5.00;4.75;;;;;23.31;48.98;101341.66;5078219;28;45331;-50
2021/09/20 07:55:45;;;;;;;;;8.50;6.50;;;;;23.33;48.96;101349.50;5078231;28;46128;-48
2021/09/20 07:58:12;;;;;;;;;5.00;5.00;;;;;23.31;48.90;101344.31;5078349;28;45395;-50
2021/09/20 08:00:41;;;;;;;;;6.00;6.00;;;;;23.33;48.98;101341.56;5078316;28;45547;-51
2021/09/20 08:03:11;;;;;;;;;7.25;6.00;;;;;23.34;49.17;101350.38;5077990;28;47107;-49
2021/09/20 08:05:40;;;;;;;;;6.50;4.75;;;;;23.34;49.40;101345.91;5078041;28;45418;-50
2021/09/20 08:08:05;;;;;;;;;6.50;6.50;;;;;23.34;49.23;101340.63;5077301;28;45444;-46
2021/09/20 08:10:35;;;;;;;;;6.00;6.00;;;;;23.36;49.16;101351.97;5078570;28;45509;-45
2021/09/20 08:13:03;;;;;;;;;5.25;5.25;;;;;23.35;49.43;101352.91;5078093;28;46232;-57
2021/09/20 08:15:29;;;;;;;;;7.75;7.75;;;;;23.37;49.08;101352.84;5077977;28;45334;-53
2021/09/20 08:17:55;;;;;;;;;5.75;5.00;;;;;23.36;49.13;101354.63;5077999;28;45417;-60
2021/09/20 08:20:21;;;;;;;;;7.00;7.00;;;;;23.36;48.85;101348.50;5078160;28;45426;-56
2021/09/20 08:22:49;;;;;;;;;8.00;8.00;;;;;23.38;49.47;101362.44;5077555;28;46636;-53
2021/09/20 08:25:19;;;;;;;;;6.75;5.50;;;;;23.37;48.85;101355.47;5077647;28;45193;-51
2021/09/20 08:27:45;;;;;;;;;7.75;7.75;;;;;23.37;49.19;101361.63;5078003;28;45423;-59
2021/09/20 08:30:12;;;;;;;;;6.75;6.00;;;;;23.38;49.40;101363.31;5077906;28;45516;-52
2021/09/20 08:32:37;;;;;;;;;5.75;5.75;;;;;23.38;49.35;101368.59;5077775;28;45432;-47
2021/09/20 08:35:04;;;;;;;;;8.50;6.75;;;;;23.40;49.19;101373.78;5059661;28;45320;-53
2021/09/20 08:37:29;;;;;;;;;9.50;7.75;;;;;23.38;49.33;101365.97;5077672;28;45211;-60
2021/09/20 08:39:54;;;;;;;;;6.00;6.00;;;;;23.38;49.01;101367.75;5059661;28;45335;-58
2021/09/20 08:42:20;;;;;;;;;8.00;8.00;;;;;23.40;49.07;101379.97;5077552;28;46108;-53
2021/09/20 08:44:46;;;;;;;;;6.25;6.25;;;;;23.41;49.04;101378.16;5077394;28;45371;-48
2021/09/20 08:47:14;;;;;;;;;7.00;6.50;;;;;23.40;48.88;101379.97;5077617;28;45331;-47
2021/09/20 08:49:39;;;;;;;;;7.75;6.25;;;;;23.41;48.85;101379.00;5077674;28;45525;-48
2021/09/20 08:52:05;;;;;;;;;6.50;6.50;;;;;23.42;49.53;101380.72;5077592;28;45443;-46
2021/09/20 08:54:30;;;;;;;;;6.50;6.50;;;;;23.43;49.26;101387.69;5077305;28;45334;-49
2021/09/20 08:56:56;;;;;;;;;7.75;7.00;;;;;23.43;48.91;101382.41;5077475;28;45661;-49
2021/09/20 08:59:22;;;;;;;;;7.75;7.75;;;;;23.43;49.38;101382.41;5058958;28;45374;-51
2021/09/20 09:01:52;;;;;;;;;6.25;5.50;;;;;23.44;49.03;101389.41;5077220;28;45481;-49
2021/09/20 09:04:33;;;;;;;;;8.50;8.50;;;;;23.43;48.99;101390.34;5077247;28;45391;-51
2021/09/20 09:07:13;;;;;;;;;7.00;7.00;;;;;23.44;48.87;101391.19;5077269;28;45299;-51
2021/09/20 09:09:45;;;;;;;;;7.00;7.00;;;;;23.44;48.99;101394.69;5077232;28;45399;-46
2021/09/20 09:12:14;;;;;;;;;8.75;8.50;;;;;23.44;49.30;101399.13;5077075;28;46479;-46
2021/09/20 09:14:47;;;;;;;;;6.75;6.75;;;;;23.44;49.28;101397.31;5058529;28;45861;-47
2021/09/20 09:17:34;;;;;;;;;7.75;7.75;;;;;23.44;49.02;101399.13;5077198;28;45318;-52
2021/09/20 09:20:05;;;;;;;;;8.00;6.00;;;;;23.44;49.24;101405.25;5092864;27;45399;-48
2021/09/20 09:22:44;;;;;;;;;8.75;8.75;;;;;23.44;49.28;101399.97;5076867;28;46782;-48
2021/09/20 09:25:13;;;;;;;;;9.25;7.75;;;;;23.44;49.79;101399.13;5077020;28;45575;-49
2021/09/20 09:27:40;;;;;;;;;9.00;8.00;;;;;23.43;49.08;101400.91;5077255;28;45269;-50
2021/09/20 09:30:10;;;;;;;;;9.00;8.00;;;;;23.45;49.21;101409.63;5077276;28;45462;-47
2021/09/20 09:32:37;;;;;;;;;8.25;8.25;;;;;23.45;49.28;101412.25;5077140;28;47361;-47
2021/09/20 09:35:04;;;;;;;;;7.75;7.75;;;;;23.45;49.36;101414.06;5076695;28;45355;-50
2021/09/20 09:37:30;;;;;;;;;8.00;8.00;;;;;23.45;49.12;101412.25;5076718;28;45247;-47
2021/09/20 09:40:11;;;;;;;;;7.75;7.75;;;;;23.46;49.07;101413.97;5076826;28;45595;-46
2021/09/20 09:42:37;;;;;;;;;7.00;5.75;;;;;23.45;49.12;101412.25;5076686;28;46954;-47
2021/09/20 09:45:21;;;;;;;;;9.00;7.75;;;;;23.46;49.49;101410.50;5076615;28;45822;-52
2021/09/20 09:47:49;;;;;;;;;7.50;6.25;;;;;23.45;49.14;101414.91;5076605;28;45349;-57
2021/09/20 09:50:14;;;;;;;;;8.00;7.00;;;;;23.45;49.22;101420.19;5058581;28;45464;-52
2021/09/20 09:52:40;;;;;;;;;9.00;8.00;;;;;23.46;49.41;101413.97;5076891;28;45434;-47
2021/09/20 09:55:07;;;;;;;;;9.50;9.50;;;;;23.44;49.29;101418.50;5076638;28;45365;-46
2021/09/20 09:57:33;;;;;;;;;10.25;10.25;;;;;23.45;49.40;101417.56;5076619;28;45449;-47
2021/09/20 10:00:07;;;;;;;;;9.25;8.50;;;;;23.46;48.85;101419.25;5076521;28;45559;-48
2021/09/20 10:02:36;;;;;;;;;8.75;8.75;;;;;23.46;49.04;101421.91;5076176;28;45586;-49
2021/09/20 10:05:19;;;;;;;;;9.00;9.00;;;;;23.46;49.50;101426.34;5076223;28;45503;-46
2021/09/20 10:07:51;;;;;;;;;6.50;6.50;;;;;23.45;49.49;101422.84;5076412;28;45504;-47
2021/09/20 10:10:21;;;;;;;;;6.75;4.75;;;;;23.45;49.03;101422.84;5058204;28;45478;-47
2021/09/20 10:12:48;;;;;;;;;6.75;6.00;;;;;23.45;49.20;101429.94;5060996;28;47402;-50
2021/09/20 10:15:16;;;;;;;;;7.00;7.00;;;;;23.45;48.94;101425.50;5079760;28;45645;-48
2021/09/20 10:17:42;;;;;;;;;8.00;8.00;;;;;23.45;49.48;101428.13;5080186;28;45380;-46
2021/09/20 10:20:12;;;;;;;;;9.00;6.50;;;;;23.46;49.56;101429.84;5079214;28;45519;-51
2021/09/20 10:22:37;;;;;;;;;9.75;7.25;;;;;23.46;49.13;101432.50;5079751;28;46179;-50
2021/09/20 10:25:05;;;;;;;;;6.25;6.25;;;;;23.46;49.54;101424.56;5061461;28;46299;-53
2021/09/20 10:27:31;;;;;;;;;7.00;7.00;;;;;23.45;49.61;101429.94;5079738;28;45248;-49
2021/09/20 10:30:12;;;;;;;;;9.00;6.50;;;;;23.45;49.25;101424.66;5079541;28;45446;-49
2021/09/20 10:32:48;;;;;;;;;8.00;6.25;;;;;23.47;49.26;101428.06;5079119;28;47414;-54
2021/09/20 10:35:29;;;;;;;;;8.25;7.00;;;;;23.47;49.07;101428.06;5079333;28;45338;-46
2021/09/20 10:38:04;;;;;;;;;7.00;7.00;;;;;23.46;49.27;101424.56;5061478;28;45390;-46
2021/09/20 10:40:30;;;;;;;;;11.25;8.75;;;;;23.46;49.42;101424.56;5079669;28;45714;-46
2021/09/20 10:43:00;;;;;;;;;10.25;9.50;;;;;23.47;49.06;101430.72;5079232;28;46515;-46
2021/09/20 10:45:37;;;;;;;;;8.00;8.00;;;;;23.46;49.44;101429.00;5079341;28;45803;-48
2021/09/20 10:48:24;;;;;;;;;7.25;7.25;;;;;23.47;49.54;101436.00;5079489;28;45453;-50
2021/09/20 10:50:54;;;;;;;;;7.50;7.00;;;;;23.46;49.63;101429.84;5071831;28;45714;-63
2021/09/20 10:53:31;;;;;;;;;11.25;8.75;;;;;23.45;49.63;101433.44;5079000;28;47230;-57
2021/09/20 10:56:03;;;;;;;;;6.50;6.50;;;;;23.47;49.79;101436.00;5079199;28;45857;-64
2021/09/20 10:58:39;;;;;;;;;6.00;6.00;;;;;23.46;49.51;101432.50;5079461;28;45303;-61
2021/09/20 11:01:16;;;;;;;;;8.00;8.00;;;;;23.46;49.33;101435.13;5079170;28;45761;-57
2021/09/20 11:03:43;;;;;;;;;8.00;6.75;;;;;23.46;49.09;101434.28;5079417;28;45408;-64
2021/09/20 11:06:21;;;;;;;;;6.75;6.75;;;;;23.47;49.63;101431.53;5060975;28;45456;-51
2021/09/20 11:08:47;;;;;;;;;7.50;7.50;;;;;23.47;49.60;101431.53;5079236;28;45259;-50
2021/09/20 11:11:41;;;;;;;;;8.25;8.25;;;;;23.48;49.30;101437.72;5079466;28;45441;-47
2021/09/20 11:14:06;;;;;;;;;10.25;7.25;;;;;23.47;49.26;101434.19;5060352;28;48311;-49
2021/09/20 11:16:46;;;;;;;;;8.33;8.00;;;;;23.48;49.47;101427.13;5078929;28;45224;-46
2021/09/20 11:19:24;;;;;;;;;10.00;8.25;;;;;23.48;49.35;101432.41;5079325;28;45501;-57
2021/09/20 11:22:14;;;;;;;;;6.25;6.25;;;;;23.49;49.40;101431.44;5078939;28;45787;-52
2021/09/20 11:24:42;;;;;;;;;7.75;7.75;;;;;23.49;49.59;101435.91;5078819;28;46199;-48